Aviation Digital Data Service (ADDS)

Output produced by TAFs form (0956 UTC 23 April 2017)
found at http://www.aviationweather.gov/adds/tafs/
 
METAR text: RORS 230900Z 03010KT 9999 FEW033 SCT/// 23/15 Q1014
Conditions at: RORS (SHIMOJI-SHIMA IS, JP) observed 0900 UTC 23 April 2017
Temperature: 23.0°C (73°F)
Dewpoint: 15.0°C (59°F) [RH = 61%]
Pressure (altimeter): 29.94 inches Hg (1014.0 mb)
Winds: from the NNE (30 degrees) at 12 MPH (10 knots; 5.2 m/s)
Visibility: 6 or more miles (10+ km)
Ceiling: at least 12,000 feet AGL
Clouds: few clouds at 3300 feet AGL
Weather: no significant weather observed at this time